Time;durP1;ratioP1;P1;durP2;ratioP2;P2;SDS_P1;SDS_P2;PMS_P1;PMS_P2;Temp;Humidity;BMP_temperature;BMP_pressure;BME280_temperature;BME280_humidity;BME280_pressure;Samples;Min_cycle;Max_cycle;Signal;HPM_P1;HPM_P2
2023/05/08 00:02:08;;;;;;;;;;;;;;;13.54;57.13;98360.44;5048340;28;19988;-63
2023/05/08 00:04:56;;;;;;;;;;;;;;;13.61;56.70;98355.28;5075221;28;20385;-64
2023/05/08 00:07:45;;;;;;;;;;;;;;;13.65;56.94;98351.94;5058485;28;19939;-62
2023/05/08 00:10:33;;;;;;;;;;;;;;;13.59;57.04;98349.34;5049281;28;20330;-63
2023/05/08 00:13:22;;;;;;;;;;;;;;;13.58;56.78;98353.22;5070518;28;20381;-64
2023/05/08 00:16:11;;;;;;;;;;;;;;;13.47;57.27;98351.09;5063976;28;20065;-64
2023/05/08 00:19:00;;;;;;;;;;;;;;;13.49;56.67;98354.31;5064287;28;21317;-64
2023/05/08 00:21:49;;;;;;;;;;;;;;;13.41;57.19;98346.91;5063991;28;19928;-64
2023/05/08 00:24:37;;;;;;;;;;;;;;;13.41;57.21;98352.38;5050327;28;19928;-64
2023/05/08 00:27:25;;;;;;;;;;;;;;;13.32;57.20;98357.84;5066220;28;19966;-65
2023/05/08 00:30:15;;;;;;;;;;;;;;;13.41;56.97;98352.38;5055831;28;19966;-66
2023/05/08 00:33:03;;;;;;;;;;;;;;;13.41;56.65;98342.25;5049632;28;19921;-64
2023/05/08 00:35:51;;;;;;;;;;;;;;;13.29;57.12;98344.81;5064878;28;19920;-63
2023/05/08 00:38:39;;;;;;;;;;;;;;;13.19;57.45;98347.81;5048724;28;19928;-64
2023/05/08 00:41:27;;;;;;;;;;;;;;;13.13;57.39;98341.69;5050077;28;19920;-64
2023/05/08 00:44:15;;;;;;;;;;;;;;;13.34;57.15;98344.66;5064066;28;19981;-64
2023/05/08 00:47:05;;;;;;;;;;;;;;;13.15;57.60;98346.84;5062006;28;19967;-64
2023/05/08 00:49:53;;;;;;;;;;;;;;;13.07;57.13;98349.22;5047915;28;20168;-65
2023/05/08 00:52:41;;;;;;;;;;;;;;;13.06;57.27;98347.63;5050876;28;19920;-65
2023/05/08 00:55:29;;;;;;;;;;;;;;;13.13;57.48;98346.34;5063905;28;19920;-64
2023/05/08 00:58:18;;;;;;;;;;;;;;;13.03;57.25;98358.34;5063066;28;19934;-64
2023/05/08 01:01:06;;;;;;;;;;;;;;;13.03;57.03;98345.53;5049893;28;19924;-62
2023/05/08 01:03:56;;;;;;;;;;;;;;;13.02;57.14;98356.75;5049345;28;20443;-64
2023/05/08 01:06:44;;;;;;;;;;;;;;;13.01;57.07;98358.69;5048581;28;19924;-64
2023/05/08 01:09:32;;;;;;;;;;;;;;;12.93;57.42;98364.91;5055376;28;19925;-65
2023/05/08 01:12:21;;;;;;;;;;;;;;;12.91;57.04;98367.16;5048464;28;19931;-65
2023/05/08 01:15:11;;;;;;;;;;;;;;;12.91;57.21;98367.16;5064156;28;20020;-64
2023/05/08 01:18:02;;;;;;;;;;;;;;;12.87;57.04;98376.25;5064715;28;20002;-64
2023/05/08 01:20:53;;;;;;;;;;;;;;;12.97;56.63;98371.34;5078953;28;20396;-64
2023/05/08 01:23:49;;;;;;;;;;;;;;;13.11;56.17;98377.50;5065218;28;20599;-64
2023/05/08 01:26:53;;;;;;;;;;;;;;;12.98;56.67;98391.22;5068116;28;20401;-62
2023/05/08 01:29:55;;;;;;;;;;;;;;;12.87;56.97;98393.44;5068237;28;19924;-63
2023/05/08 01:32:46;;;;;;;;;;;;;;;12.77;56.92;98394.50;5069125;28;19925;-64
2023/05/08 01:35:36;;;;;;;;;;;;;;;12.78;57.06;98389.84;5074119;28;19928;-64
2023/05/08 01:38:27;;;;;;;;;;;;;;;12.80;57.04;98387.63;5082251;28;20093;-62
2023/05/08 01:41:16;;;;;;;;;;;;;;;12.72;56.88;98393.84;5057002;28;19921;-64
2023/05/08 01:44:06;;;;;;;;;;;;;;;12.65;57.13;98397.00;5070520;28;20520;-63
2023/05/08 01:46:54;;;;;;;;;;;;;;;12.78;56.66;98398.03;5088873;28;19992;-64
2023/05/08 01:49:44;;;;;;;;;;;;;;;12.68;57.17;98398.31;5065940;28;19988;-64
2023/05/08 01:52:33;;;;;;;;;;;;;;;12.73;56.90;98392.72;5084789;28;19994;-64
2023/05/08 01:55:24;;;;;;;;;;;;;;;12.65;57.05;98407.13;5061186;28;20400;-61
2023/05/08 01:58:12;;;;;;;;;;;;;;;12.77;56.92;98399.16;5050903;28;20045;-65
2023/05/08 02:01:00;;;;;;;;;;;;;;;12.65;57.16;98412.56;5075084;28;19931;-63
2023/05/08 02:03:49;;;;;;;;;;;;;;;12.65;57.40;98412.56;5109536;27;20014;-64
2023/05/08 02:06:39;;;;;;;;;;;;;;;12.63;56.91;98412.88;5116074;27;19934;-64
2023/05/08 02:09:27;;;;;;;;;;;;;;;12.60;57.37;98416.22;5102980;28;20007;-64
2023/05/08 02:12:15;;;;;;;;;;;;;;;12.56;57.45;98416.03;5085748;28;19920;-64
2023/05/08 02:15:05;;;;;;;;;;;;;;;12.63;57.16;98420.25;5072864;28;19960;-64
2023/05/08 02:17:54;;;;;;;;;;;;;;;12.53;57.43;98415.88;5085981;28;19926;-63
2023/05/08 02:20:42;;;;;;;;;;;;;;;12.57;57.26;98414.94;5071967;28;19931;-64
2023/05/08 02:23:33;;;;;;;;;;;;;;;12.54;57.27;98418.28;5088759;28;19924;-64
2023/05/08 02:26:21;;;;;;;;;;;;;;;12.50;57.82;98411.84;5071754;28;19930;-65
2023/05/08 02:29:11;;;;;;;;;;;;;;;12.50;57.73;98413.75;5070813;28;19924;-63
2023/05/08 02:32:00;;;;;;;;;;;;;;;12.44;58.06;98413.09;5071350;28;19928;-63
2023/05/08 02:34:48;;;;;;;;;;;;;;;12.41;58.16;98413.72;5080938;28;19930;-64
2023/05/08 02:37:49;;;;;;;;;;;;;;;12.43;58.26;98408.75;5068030;28;19920;-64
2023/05/08 02:40:41;;;;;;;;;;;;;;;12.42;58.00;98415.31;5073237;28;19943;-64
2023/05/08 02:43:29;;;;;;;;;;;;;;;12.39;58.73;98418.66;5092403;28;20369;-62
2023/05/08 02:46:18;;;;;;;;;;;;;;;12.33;58.62;98423.44;5094145;28;20444;-63
2023/05/08 02:49:12;;;;;;;;;;;;;;;12.40;58.78;98423.00;5054754;28;19920;-64
2023/05/08 02:52:03;;;;;;;;;;;;;;;12.35;58.64;98425.03;5090370;28;19943;-64
2023/05/08 02:54:53;;;;;;;;;;;;;;;12.41;58.30;98424.63;5081602;28;20392;-62
2023/05/08 02:57:43;;;;;;;;;;;;;;;12.43;58.36;98427.84;5077708;28;20483;-62
2023/05/08 03:00:32;;;;;;;;;;;;;;;12.43;58.30;98421.59;5057339;28;19939;-68
2023/05/08 03:03:21;;;;;;;;;;;;;;;12.45;58.13;98425.59;5063342;28;19920;-63
2023/05/08 03:06:12;;;;;;;;;;;;;;;12.41;58.44;98423.78;5063205;28;19948;-64
2023/05/08 03:09:00;;;;;;;;;;;;;;;12.29;58.96;98421.63;5079922;28;19920;-62
2023/05/08 03:11:50;;;;;;;;;;;;;;;12.35;58.79;98419.59;5060708;28;19924;-62
2023/05/08 03:14:41;;;;;;;;;;;;;;;12.28;58.83;98425.47;5059836;28;19924;-64
2023/05/08 03:17:32;;;;;;;;;;;;;;;12.17;59.46;98418.66;5067899;28;19921;-64
2023/05/08 03:20:21;;;;;;;;;;;;;;;12.10;59.47;98421.84;5078451;28;19947;-64
2023/05/08 03:23:09;;;;;;;;;;;;;;;12.04;59.52;98423.06;5058136;28;19951;-64
2023/05/08 03:26:00;;;;;;;;;;;;;;;12.05;59.55;98427.41;5085534;28;19926;-64
2023/05/08 03:28:52;;;;;;;;;;;;;;;12.01;59.57;98427.19;5085324;28;20013;-64
2023/05/08 03:31:46;;;;;;;;;;;;;;;12.09;59.29;98433.00;5076255;28;19920;-63
2023/05/08 03:34:34;;;;;;;;;;;;;;;11.92;59.73;98422.78;5066607;28;19920;-64
2023/05/08 03:37:23;;;;;;;;;;;;;;;11.88;60.01;98425.34;5070269;28;20007;-64
2023/05/08 03:40:11;;;;;;;;;;;;;;;11.80;60.02;98426.03;5070722;28;20015;-64
2023/05/08 03:42:59;;;;;;;;;;;;;;;11.74;60.41;98428.06;5073904;28;19928;-63
2023/05/08 03:45:48;;;;;;;;;;;;;;;11.85;60.50;98423.22;5071147;28;19920;-64
2023/05/08 03:48:37;;;;;;;;;;;;;;;11.72;60.44;98426.75;5075727;28;19940;-65
2023/05/08 03:51:27;;;;;;;;;;;;;;;11.63;60.65;98423.94;5064442;28;19924;-62
2023/05/08 03:54:16;;;;;;;;;;;;;;;11.68;60.80;98421.13;5060188;28;19949;-65
2023/05/08 03:57:04;;;;;;;;;;;;;;;11.69;60.45;98424.63;5090167;28;19924;-63
2023/05/08 03:59:55;;;;;;;;;;;;;;;11.71;60.67;98425.94;5076881;28;19934;-63
2023/05/08 04:02:44;;;;;;;;;;;;;;;11.63;61.02;98428.59;5070903;28;19935;-65
2023/05/08 04:05:36;;;;;;;;;;;;;;;11.62;60.77;98432.41;5070816;28;20028;-64
2023/05/08 04:08:27;;;;;;;;;;;;;;;11.53;61.07;98432.31;5071722;28;20735;-63
2023/05/08 04:11:17;;;;;;;;;;;;;;;11.49;61.17;98432.13;5072586;28;19920;-63
2023/05/08 04:14:08;;;;;;;;;;;;;;;11.49;61.41;98436.75;5061223;28;19921;-63
2023/05/08 04:16:58;;;;;;;;;;;;;;;11.51;61.49;98442.72;5069361;28;20081;-63
2023/05/08 04:19:47;;;;;;;;;;;;;;;11.46;61.69;98438.19;5087820;28;19921;-64
2023/05/08 04:22:37;;;;;;;;;;;;;;;11.51;61.35;98457.13;5065910;28;19920;-63
2023/05/08 04:25:25;;;;;;;;;;;;;;;11.57;61.53;98451.56;5087382;28;19931;-64
2023/05/08 04:28:13;;;;;;;;;;;;;;;11.65;60.61;98439.97;5079622;28;19928;-64
2023/05/08 04:31:02;;;;;;;;;;;;;;;11.62;60.63;98452.28;5092947;28;19920;-64
2023/05/08 04:33:51;;;;;;;;;;;;;;;11.57;60.86;98448.84;5083357;28;20549;-63
2023/05/08 04:36:40;;;;;;;;;;;;;;;11.74;60.81;98454.47;5064400;28;20000;-63
2023/05/08 04:39:29;;;;;;;;;;;;;;;11.72;60.83;98452.06;5080152;28;19921;-63
2023/05/08 04:42:18;;;;;;;;;;;;;;;11.66;61.22;98457.91;5058345;28;20018;-64
2023/05/08 04:45:07;;;;;;;;;;;;;;;11.60;60.82;98459.91;5060888;28;20469;-62
2023/05/08 04:47:58;;;;;;;;;;;;;;;11.55;61.41;98452.66;5081964;28;20395;-62
2023/05/08 04:50:47;;;;;;;;;;;;;;;11.69;60.71;98462.75;5063486;28;19931;-63
2023/05/08 04:53:35;;;;;;;;;;;;;;;11.75;60.63;98469.69;5064300;28;20112;-64
2023/05/08 04:56:25;;;;;;;;;;;;;;;11.83;60.27;98469.00;5062921;28;19954;-63
2023/05/08 04:59:17;;;;;;;;;;;;;;;11.83;60.48;98470.94;5061067;28;19974;-63
2023/05/08 05:02:07;;;;;;;;;;;;;;;11.82;60.65;98467.38;5081678;28;20013;-63
2023/05/08 05:04:57;;;;;;;;;;;;;;;11.92;60.24;98469.88;5075148;28;19920;-67
2023/05/08 05:07:46;;;;;;;;;;;;;;;12.00;60.06;98471.09;5092236;28;19920;-64
2023/05/08 05:10:34;;;;;;;;;;;;;;;11.95;60.31;98472.00;5067655;28;19920;-63
2023/05/08 05:13:25;;;;;;;;;;;;;;;11.97;60.09;98483.38;5070263;28;19986;-62
2023/05/08 05:16:14;;;;;;;;;;;;;;;12.00;60.23;98477.31;5063539;28;19927;-65
2023/05/08 05:19:03;;;;;;;;;;;;;;;12.00;59.94;98476.53;5091284;28;20559;-62
2023/05/08 05:21:53;;;;;;;;;;;;;;;11.96;59.83;98487.22;5067427;28;20015;-62
2023/05/08 05:24:41;;;;;;;;;;;;;;;12.12;59.56;98479.50;5070381;28;19958;-64
2023/05/08 05:27:29;;;;;;;;;;;;;;;12.04;59.41;98477.53;5058329;28;19924;-67
2023/05/08 05:30:19;;;;;;;;;;;;;;;12.07;59.76;98480.44;5052466;28;19943;-64
2023/05/08 05:33:07;;;;;;;;;;;;;;;12.05;59.86;98482.66;5058315;28;19994;-64
2023/05/08 05:35:57;;;;;;;;;;;;;;;12.11;59.74;98474.38;5063172;28;19920;-64
2023/05/08 05:38:46;;;;;;;;;;;;;;;12.18;59.40;98477.47;5067098;28;19927;-64
2023/05/08 05:41:35;;;;;;;;;;;;;;;12.29;59.18;98487.00;5075345;28;19921;-64
2023/05/08 05:44:24;;;;;;;;;;;;;;;12.36;58.59;98489.31;5064507;28;20373;-63
2023/05/08 05:47:13;;;;;;;;;;;;;;;12.39;58.28;98489.50;5092673;28;20323;-64
2023/05/08 05:50:02;;;;;;;;;;;;;;;12.41;58.34;98494.63;5040554;28;19921;-65
2023/05/08 05:52:50;;;;;;;;;;;;;;;12.38;58.41;98496.06;5071566;28;20026;-64
2023/05/08 05:55:40;;;;;;;;;;;;;;;12.39;58.56;98494.16;5082571;28;20456;-64
2023/05/08 05:58:28;;;;;;;;;;;;;;;12.50;58.29;98493.59;5060645;28;19924;-64
2023/05/08 06:01:17;;;;;;;;;;;;;;;12.48;58.68;98495.84;5069694;28;20479;-63
2023/05/08 06:04:06;;;;;;;;;;;;;;;12.63;58.47;98497.41;5047851;28;19927;-64
2023/05/08 06:06:55;;;;;;;;;;;;;;;12.53;57.59;98503.88;5062143;28;19920;-63
2023/05/08 06:09:43;;;;;;;;;;;;;;;12.58;58.08;98501.03;5046070;28;19936;-63
2023/05/08 06:12:32;;;;;;;;;;;;;;;12.60;57.90;98500.72;5048215;28;19925;-62
2023/05/08 06:15:21;;;;;;;;;;;;;;;12.51;57.72;98500.66;5076060;28;20047;-64
2023/05/08 06:18:09;;;;;;;;;;;;;;;12.55;58.00;98501.66;5055227;28;20282;-64
2023/05/08 06:20:59;;;;;;;;;;;;;;;12.62;57.67;98500.41;5047865;28;19920;-64
2023/05/08 06:23:47;;;;;;;;;;;;;;;12.66;57.48;98496.75;5070077;28;20082;-63
2023/05/08 06:26:36;;;;;;;;;;;;;;;12.77;57.81;98508.22;5062855;28;19925;-65
2023/05/08 06:29:24;;;;;;;;;;;;;;;12.86;57.30;98500.91;5073657;28;19928;-63
2023/05/08 06:32:12;;;;;;;;;;;;;;;12.93;56.58;98506.72;5062169;28;19927;-63
2023/05/08 06:35:00;;;;;;;;;;;;;;;12.97;56.99;98509.63;5061809;28;19974;-63
2023/05/08 06:37:51;;;;;;;;;;;;;;;13.01;56.76;98508.69;5060894;28;19925;-63
2023/05/08 06:40:41;;;;;;;;;;;;;;;13.05;56.69;98509.69;5075697;28;19974;-64
2023/05/08 06:43:29;;;;;;;;;;;;;;;13.20;56.49;98513.09;5064941;28;20398;-64
2023/05/08 06:46:20;;;;;;;;;;;;;;;13.31;55.93;98517.19;5046556;28;19998;-64
2023/05/08 06:49:08;;;;;;;;;;;;;;;13.42;56.07;98506.81;5055392;28;19927;-64
2023/05/08 06:51:56;;;;;;;;;;;;;;;13.54;55.62;98510.56;5056974;28;19955;-65
2023/05/08 06:54:47;;;;;;;;;;;;;;;13.58;55.80;98508.00;5046758;28;19974;-64
2023/05/08 06:57:35;;;;;;;;;;;;;;;13.72;55.64;98510.63;5049881;28;19925;-65
2023/05/08 07:00:26;;;;;;;;;;;;;;;13.83;54.93;98506.47;5051598;28;20538;-65
2023/05/08 07:03:15;;;;;;;;;;;;;;;14.00;54.92;98506.50;5066204;28;19986;-64
2023/05/08 07:06:06;;;;;;;;;;;;;;;14.07;54.28;98506.84;5059666;28;20006;-64
2023/05/08 07:08:54;;;;;;;;;;;;;;;14.26;53.77;98505.72;5061222;28;19940;-65
2023/05/08 07:11:43;;;;;;;;;;;;;;;14.42;54.21;98507.66;5065278;28;19928;-62
2023/05/08 07:14:31;;;;;;;;;;;;;;;14.61;52.86;98499.16;5055538;28;19979;-64
2023/05/08 07:17:19;;;;;;;;;;;;;;;14.84;53.03;98501.69;5055865;28;20057;-65
2023/05/08 07:20:09;;;;;;;;;;;;;;;15.13;51.93;98495.53;5063213;28;19965;-65
2023/05/08 07:22:57;;;;;;;;;;;;;;;15.12;51.42;98499.38;5083433;28;19924;-64
2023/05/08 07:25:45;;;;;;;;;;;;;;;14.84;52.44;98505.25;5080164;28;20049;-65
2023/05/08 07:28:35;;;;;;;;;;;;;;;14.92;52.87;98506.38;5085524;28;19927;-66
2023/05/08 07:31:23;;;;;;;;;;;;;;;15.00;53.00;98500.06;5082644;28;19927;-65
2023/05/08 07:34:11;;;;;;;;;;;;;;;15.03;52.60;98504.88;5083666;28;19973;-65
2023/05/08 07:36:59;;;;;;;;;;;;;;;15.18;52.61;98504.38;5076467;28;19921;-65
2023/05/08 07:39:48;;;;;;;;;;;;;;;15.37;52.36;98506.69;5084768;28;19936;-64
2023/05/08 07:42:40;;;;;;;;;;;;;;;15.55;51.18;98498.41;5066947;28;19920;-64
2023/05/08 07:45:29;;;;;;;;;;;;;;;15.50;51.67;98502.16;5071348;28;19946;-63
2023/05/08 07:48:17;;;;;;;;;;;;;;;15.68;51.66;98508.38;5063460;28;20432;-65
2023/05/08 07:51:06;;;;;;;;;;;;;;;15.86;51.22;98507.13;5063606;28;19920;-65
2023/05/08 07:53:56;;;;;;;;;;;;;;;15.89;50.31;98508.41;5082627;28;19927;-65
2023/05/08 07:56:44;;;;;;;;;;;;;;;16.02;51.17;98503.81;5073490;28;20380;-64
2023/05/08 07:59:32;;;;;;;;;;;;;;;16.08;50.55;98506.03;5085561;28;19924;-64
2023/05/08 08:02:22;;;;;;;;;;;;;;;16.16;50.73;98507.91;5084005;28;19968;-66
2023/05/08 08:05:10;;;;;;;;;;;;;;;16.28;50.27;98500.91;5073931;28;19924;-65
2023/05/08 08:07:58;;;;;;;;;;;;;;;16.36;50.49;98505.53;5072130;28;19927;-64
2023/05/08 08:10:47;;;;;;;;;;;;;;;16.41;50.47;98506.13;5070534;28;19955;-65
2023/05/08 08:13:35;;;;;;;;;;;;;;;16.46;50.34;98499.63;5084439;28;19947;-65
2023/05/08 08:16:23;;;;;;;;;;;;;;;16.60;50.33;98510.31;5085440;28;20347;-65
2023/05/08 08:19:14;;;;;;;;;;;;;;;16.65;49.92;98502.69;5067610;28;20518;-65
2023/05/08 08:22:02;;;;;;;;;;;;;;;16.83;49.61;98511.59;5080246;28;20015;-64
2023/05/08 08:24:50;;;;;;;;;;;;;;;16.83;49.66;98508.03;5079070;28;19955;-65
2023/05/08 08:27:41;;;;;;;;;;;;;;;16.82;49.91;98509.16;5082234;28;19997;-66
2023/05/08 08:30:29;;;;;;;;;;;;;;;16.84;49.37;98504.16;5083684;28;19943;-66
2023/05/08 08:33:20;;;;;;;;;;;;;;;16.87;49.99;98504.28;5073816;28;19974;-65
2023/05/08 08:36:13;;;;;;;;;;;;;;;17.01;49.62;98501.25;5084405;28;20543;-65
2023/05/08 08:39:02;;;;;;;;;;;;;;;16.99;48.80;98506.25;5082650;28;19941;-65
2023/05/08 08:41:51;;;;;;;;;;;;;;;16.84;49.55;98504.97;5085411;28;19920;-65
2023/05/08 08:44:40;;;;;;;;;;;;;;;16.88;49.96;98505.06;5073889;28;19920;-64
2023/05/08 08:47:31;;;;;;;;;;;;;;;16.86;50.40;98501.88;5079059;28;19920;-67
2023/05/08 08:50:20;;;;;;;;;;;;;;;16.70;50.14;98504.41;5077324;28;19928;-63
2023/05/08 08:53:12;;;;;;;;;;;;;;;16.64;50.27;98506.56;5070928;28;20010;-64
2023/05/08 08:56:01;;;;;;;;;;;;;;;16.65;50.17;98508.16;5069005;28;20284;-64
2023/05/08 08:58:50;;;;;;;;;;;;;;;16.80;50.39;98505.97;5083876;28;19970;-65
2023/05/08 09:01:39;;;;;;;;;;;;;;;16.91;50.03;98504.41;5068628;28;20038;-65
2023/05/08 09:04:31;;;;;;;;;;;;;;;16.97;49.52;98503.06;5081138;28;20401;-65
2023/05/08 09:07:19;;;;;;;;;;;;;;;17.01;49.43;98498.50;5084066;28;20365;-64
2023/05/08 09:10:14;;;;;;;;;;;;;;;17.07;49.93;98504.56;5084203;28;20340;-64
2023/05/08 09:13:02;;;;;;;;;;;;;;;17.01;50.07;98507.53;5076326;28;19920;-64
2023/05/08 09:15:51;;;;;;;;;;;;;;;17.08;50.10;98506.97;5083378;28;19998;-62
2023/05/08 09:18:40;;;;;;;;;;;;;;;17.18;49.95;98505.72;5085107;28;21266;-65
2023/05/08 09:21:28;;;;;;;;;;;;;;;17.18;49.28;98508.47;5080968;28;20073;-65
2023/05/08 09:24:17;;;;;;;;;;;;;;;17.21;49.56;98505.88;5083847;28;19920;-64
2023/05/08 09:27:07;;;;;;;;;;;;;;;17.11;49.89;98503.56;5078997;28;19928;-65
2023/05/08 09:29:58;;;;;;;;;;;;;;;17.06;49.85;98506.50;5085012;28;20410;-64
2023/05/08 09:32:49;;;;;;;;;;;;;;;17.03;50.55;98498.94;5071623;28;20346;-64
2023/05/08 09:35:37;;;;;;;;;;;;;;;17.05;50.11;98496.69;5065204;28;20369;-66
2023/05/08 09:38:32;;;;;;;;;;;;;;;17.22;50.39;98506.66;5084829;28;19928;-64
2023/05/08 09:41:22;;;;;;;;;;;;;;;17.18;50.17;98490.06;5079430;28;20001;-65
2023/05/08 09:44:12;;;;;;;;;;;;;;;17.19;49.75;98505.38;5083335;28;19927;-64
2023/05/08 09:47:19;;;;;;;;;;;;;;;17.18;49.76;98506.53;5076089;28;19927;-65
2023/05/08 09:50:07;;;;;;;;;;;;;;;17.11;49.70;98505.50;5080830;28;20013;-64
2023/05/08 09:52:56;;;;;;;;;;;;;;;17.13;50.44;98512.25;5074090;28;19951;-64
2023/05/08 09:55:47;;;;;;;;;;;;;;;17.31;50.52;98512.03;5066671;28;20472;-64
2023/05/08 09:58:39;;;;;;;;;;;;;;;17.29;49.53;98509.63;5094772;28;19932;-65
2023/05/08 10:01:30;;;;;;;;;;;;;;;17.35;49.96;98505.53;5068073;28;20050;-63
2023/05/08 10:04:18;;;;;;;;;;;;;;;17.27;49.52;98506.44;5076154;28;19920;-65
2023/05/08 10:07:06;;;;;;;;;;;;;;;17.28;50.32;98513.53;5073027;28;19928;-63
2023/05/08 10:09:59;;;;;;;;;;;;;;;17.37;49.85;98505.22;5079475;28;19943;-64
2023/05/08 10:12:47;;;;;;;;;;;;;;;17.51;50.68;98508.41;5090289;28;19924;-65
2023/05/08 10:15:35;;;;;;;;;;;;;;;17.62;50.32;98506.81;5066705;28;20274;-65
2023/05/08 10:18:25;;;;;;;;;;;;;;;17.66;49.43;98504.97;5082560;28;20487;-66
2023/05/08 10:21:13;;;;;;;;;;;;;;;17.85;49.21;98504.44;5062221;28;19994;-65
2023/05/08 10:24:01;;;;;;;;;;;;;;;17.87;48.93;98504.09;5081529;28;20014;-65
2023/05/08 10:26:56;;;;;;;;;;;;;;;18.02;49.22;98500.66;5083163;28;20366;-65
2023/05/08 10:29:55;;;;;;;;;;;;;;;18.11;49.02;98501.31;5078775;28;19932;-65
2023/05/08 10:32:44;;;;;;;;;;;;;;;18.14;49.29;98497.88;5077958;28;19950;-66
2023/05/08 10:35:33;;;;;;;;;;;;;;;18.25;48.48;98504.50;5083398;28;19959;-65
2023/05/08 10:38:22;;;;;;;;;;;;;;;18.35;48.36;98499.66;5081998;28;19928;-64
2023/05/08 10:41:10;;;;;;;;;;;;;;;18.39;48.56;98498.63;5081003;28;21523;-64
2023/05/08 10:44:00;;;;;;;;;;;;;;;18.30;47.84;98490.50;5083153;28;20035;-64
2023/05/08 10:46:52;;;;;;;;;;;;;;;18.44;48.53;98500.31;5083373;28;19924;-66
2023/05/08 10:49:40;;;;;;;;;;;;;;;18.66;47.95;98497.03;5073531;28;19924;-64
2023/05/08 10:52:32;;;;;;;;;;;;;;;18.78;47.61;98490.69;5079720;28;19920;-66
2023/05/08 10:55:22;;;;;;;;;;;;;;;19.00;47.27;98490.13;5082566;28;19931;-65
2023/05/08 10:58:11;;;;;;;;;;;;;;;19.06;46.61;98493.41;5084009;28;19924;-64
2023/05/08 11:01:12;;;;;;;;;;;;;;;19.19;46.23;98492.22;5081322;28;20642;-66
2023/05/08 11:04:06;;;;;;;;;;;;;;;19.23;46.07;98487.59;5081811;28;20273;-65
2023/05/08 11:06:57;;;;;;;;;;;;;;;19.28;46.24;98486.50;5083190;28;19924;-65
2023/05/08 11:09:47;;;;;;;;;;;;;;;19.22;45.97;98483.22;5083409;28;20565;-64
2023/05/08 11:12:36;;;;;;;;;;;;;;;19.18;47.02;98493.38;5076307;28;19920;-63
2023/05/08 11:15:35;;;;;;;;;;;;;;;19.32;46.14;98485.44;5087190;28;20332;-65
2023/05/08 11:18:24;;;;;;;;;;;;;;;19.48;46.40;98487.41;5083322;28;19931;-64
2023/05/08 11:21:15;;;;;;;;;;;;;;;19.36;46.79;98482.78;5078402;28;20285;-63
2023/05/08 11:24:03;;;;;;;;;;;;;;;19.35;46.35;98487.50;5081602;28;20388;-66
2023/05/08 11:26:53;;;;;;;;;;;;;;;19.29;46.86;98482.63;5083151;28;20022;-69
2023/05/08 11:29:41;;;;;;;;;;;;;;;19.25;46.41;98485.28;5085379;28;19920;-66
2023/05/08 11:32:44;;;;;;;;;;;;;;;19.25;46.99;98485.28;5066952;28;19920;-67
2023/05/08 11:35:56;;;;;;;;;;;;;;;19.18;46.58;98482.34;5084593;28;19966;-65
2023/05/08 11:38:45;;;;;;;;;;;;;;;19.23;47.19;98478.50;5078051;28;19928;-66
2023/05/08 11:41:34;;;;;;;;;;;;;;;19.14;46.70;98478.69;5087815;28;19931;-65
2023/05/08 11:44:24;;;;;;;;;;;;;;;19.09;46.78;98477.00;5085221;28;19920;-66
2023/05/08 11:47:12;;;;;;;;;;;;;;;18.90;47.01;98476.06;5077212;28;20012;-66
2023/05/08 11:50:01;;;;;;;;;;;;;;;18.79;47.27;98476.56;5081821;28;19920;-65
2023/05/08 11:52:49;;;;;;;;;;;;;;;18.89;47.50;98474.47;5079867;28;19943;-66
2023/05/08 11:55:37;;;;;;;;;;;;;;;19.09;47.77;98476.19;5109474;27;19924;-66
2023/05/08 11:58:25;;;;;;;;;;;;;;;19.13;47.91;98474.34;5086581;28;19992;-67
2023/05/08 12:01:19;;;;;;;;;;;;;;;19.24;47.08;98469.09;5086515;28;20578;-66
2023/05/08 12:04:07;;;;;;;;;;;;;;;19.30;46.95;98473.19;5097352;28;19924;-65
2023/05/08 12:06:59;;;;;;;;;;;;;;;19.32;46.79;98482.69;5085687;28;19931;-66
2023/05/08 12:09:47;;;;;;;;;;;;;;;19.35;46.85;98476.47;5085637;28;20418;-66
2023/05/08 12:12:36;;;;;;;;;;;;;;;19.34;46.60;98480.41;5068002;28;19925;-65
2023/05/08 12:15:24;;;;;;;;;;;;;;;19.30;46.39;98478.69;5075880;28;19920;-66
2023/05/08 12:18:14;;;;;;;;;;;;;;;19.21;47.43;98469.81;5080983;28;20080;-66
2023/05/08 12:21:02;;;;;;;;;;;;;;;19.15;47.10;98468.47;5071840;28;19921;-65
2023/05/08 12:23:51;;;;;;;;;;;;;;;19.14;47.27;98478.69;5076826;28;20010;-64
2023/05/08 12:26:39;;;;;;;;;;;;;;;19.24;47.46;98472.66;5054580;28;20401;-64
2023/05/08 12:29:28;;;;;;;;;;;;;;;19.34;46.87;98476.84;5066420;28;19963;-64
2023/05/08 12:32:16;;;;;;;;;;;;;;;19.33;47.12;98475.22;5084948;28;20369;-64
2023/05/08 12:35:06;;;;;;;;;;;;;;;19.24;46.77;98475.41;5075056;28;19920;-65
2023/05/08 12:38:00;;;;;;;;;;;;;;;19.26;47.02;98472.28;5074440;28;19920;-65
2023/05/08 12:40:51;;;;;;;;;;;;;;;19.31;46.99;98481.09;5071683;28;20377;-66
2023/05/08 12:43:40;;;;;;;;;;;;;;;19.22;46.70;98477.72;5059509;28;19998;-66
2023/05/08 12:46:28;;;;;;;;;;;;;;;19.24;47.24;98478.16;5067505;28;20401;-65
2023/05/08 12:49:22;;;;;;;;;;;;;;;19.19;47.08;98477.63;5071794;28;19932;-66
2023/05/08 12:52:13;;;;;;;;;;;;;;;19.23;47.70;98476.56;5083697;28;20316;-65
2023/05/08 12:55:01;;;;;;;;;;;;;;;19.17;47.33;98480.72;5078183;28;20032;-66
2023/05/08 12:57:50;;;;;;;;;;;;;;;19.23;48.22;98478.50;5082668;28;19927;-67
2023/05/08 13:00:39;;;;;;;;;;;;;;;19.33;47.74;98473.28;5061145;28;19935;-65
2023/05/08 13:03:28;;;;;;;;;;;;;;;19.46;47.71;98475.94;5078027;28;19955;-64
2023/05/08 13:06:19;;;;;;;;;;;;;;;19.50;47.30;98476.84;5072779;28;19935;-65
2023/05/08 13:09:09;;;;;;;;;;;;;;;19.41;47.10;98473.47;5069053;28;20008;-66
2023/05/08 13:11:57;;;;;;;;;;;;;;;19.36;47.28;98469.81;5069128;28;20254;-67
2023/05/08 13:14:46;;;;;;;;;;;;;;;19.44;47.19;98469.97;5083984;28;19928;-69
2023/05/08 13:17:37;;;;;;;;;;;;;;;19.46;47.39;98470.44;5068178;28;19974;-66
2023/05/08 13:20:25;;;;;;;;;;;;;;;19.38;47.47;98459.22;5076905;28;19927;-65
2023/05/08 13:23:13;;;;;;;;;;;;;;;19.46;47.88;98456.66;5084026;28;19926;-66
2023/05/08 13:26:03;;;;;;;;;;;;;;;19.51;47.27;98461.91;5078015;28;20034;-67
2023/05/08 13:28:51;;;;;;;;;;;;;;;19.52;46.83;98456.03;5084027;28;19924;-66
2023/05/08 13:31:42;;;;;;;;;;;;;;;19.54;46.81;98455.66;5079690;28;19928;-65
2023/05/08 13:34:30;;;;;;;;;;;;;;;19.55;47.32;98454.53;5082586;28;19920;-66
2023/05/08 13:37:18;;;;;;;;;;;;;;;19.65;47.00;98451.22;5061613;28;19924;-66
2023/05/08 13:40:07;;;;;;;;;;;;;;;19.77;47.56;98451.13;5069903;28;19924;-62
2023/05/08 13:42:57;;;;;;;;;;;;;;;19.69;46.09;98440.28;5081805;28;19931;-65
2023/05/08 13:45:45;;;;;;;;;;;;;;;19.56;46.29;98442.34;5067728;28;19920;-66
2023/05/08 13:48:33;;;;;;;;;;;;;;;19.55;46.29;98438.78;5056862;28;19921;-66
2023/05/08 13:51:22;;;;;;;;;;;;;;;19.58;46.26;98445.53;5078353;28;19959;-67
2023/05/08 13:54:10;;;;;;;;;;;;;;;19.57;46.47;98438.44;5075076;28;20705;-66
2023/05/08 13:56:58;;;;;;;;;;;;;;;19.66;46.77;98436.31;5082124;28;19943;-67
2023/05/08 13:59:48;;;;;;;;;;;;;;;19.80;46.57;98433.06;5065949;28;19924;-65
2023/05/08 14:02:37;;;;;;;;;;;;;;;19.91;46.21;98433.31;5049939;28;20011;-67
2023/05/08 14:05:25;;;;;;;;;;;;;;;19.83;46.09;98435.13;5058186;28;19925;-63
2023/05/08 14:08:13;;;;;;;;;;;;;;;19.88;46.43;98432.88;5063931;28;20011;-65
2023/05/08 14:11:02;;;;;;;;;;;;;;;19.85;46.39;98427.28;5051841;28;20344;-66
2023/05/08 14:13:50;;;;;;;;;;;;;;;19.93;46.37;98434.56;5057479;28;19921;-65
2023/05/08 14:16:40;;;;;;;;;;;;;;;19.99;46.35;98432.31;5080851;28;19995;-63
2023/05/08 14:19:28;;;;;;;;;;;;;;;19.99;46.03;98433.13;5053245;28;19927;-64
2023/05/08 14:22:17;;;;;;;;;;;;;;;19.96;45.95;98435.78;5077038;28;20031;-64
2023/05/08 14:25:07;;;;;;;;;;;;;;;19.84;45.57;98431.19;5049385;28;19920;-64
2023/05/08 14:27:55;;;;;;;;;;;;;;;19.76;46.16;98419.22;5078331;28;19920;-63
2023/05/08 14:30:44;;;;;;;;;;;;;;;19.67;45.70;98412.31;5069465;28;19932;-62
2023/05/08 14:33:33;;;;;;;;;;;;;;;19.70;46.36;98417.88;5051451;28;19931;-64
2023/05/08 14:36:22;;;;;;;;;;;;;;;19.85;45.82;98411.53;5058783;28;19924;-66
2023/05/08 14:39:10;;;;;;;;;;;;;;;19.83;45.63;98408.34;5067691;28;20004;-65
2023/05/08 14:42:00;;;;;;;;;;;;;;;19.75;45.36;98392.00;5061263;28;19920;-65
2023/05/08 14:45:09;;;;;;;;;;;;;;;19.96;45.19;98406.25;5054841;28;19929;-64